Latest Conditions
At L.F.Wade Int. Airport
Recorded at 8:55 am
Mostly Cloudy
Temp.: 
28°C/82°F
Humidity: 
91%
Wind: 
S 16KT
or 18mph
Island Observations
Observations
Wednesday, August 27, 2014

Observations are in local time and taken at least once an hour, or upon the start and end of specified events such as showers and thunderstorms.

Time Sky / Weather Wind Speed/Gusts Temp. R.H. Pressure
     knots (mph)  °C (°F)  %  mb / "Hg
 08:55 Mostly Cloudy  S 16/0 (18/0) 28(82) 91 1019 / 30.09
 07:55 Mostly Cloudy  S 17/0 (20/0) 27(81) 91 1018 / 30.07
 06:55 Mostly Cloudy  S 17/0 (20/0) 27(81) 94 1018 / 30.06
 05:55 Partly Cloudy  S 19/0 (22/0) 27(81) 94 1017 / 30.04
 04:55 Mostly Cloudy  SSE 16/0 (18/0) 27(81) 94 1017 / 30.04
 03:55 Mostly Cloudy  SSE 15/0 (17/0) 27(81) 94 1018 / 30.05
 02:55 Mostly Cloudy  SSE 17/0 (20/0) 27(81) 94 1018 / 30.05
 01:55 Overcast  SSE 16/0 (18/0) 27(81) 94 1018 / 30.06
 00:55 Overcast  SSE 16/0 (18/0) 27(81) 94 1018 / 30.07
 23:55 Overcast  SE 14/0 (16/0) 27(81) 94 1018 / 30.07
 22:55 Overcast  SE 13/0 (15/0) 27(81) 94 1018 / 30.07
 21:55 Overcast Showers ESE 15/0 (17/0) 27(80) 95 1018 / 30.06
 21:42 Overcast Showers ESE 16/0 (18/0) 27(80) 91 1018 / 30.05
 21:19 Overcast Showers SE 13/0 (15/0) 27(80) 91 1018 / 30.05
 20:55 Overcast Showers SE 12/0 (14/0) 27(80) 91 1018 / 30.05
 19:55 Overcast  SE 10/0 (12/0) 27(80) 87 1017 / 30.04
 19:40 Overcast Showers SE 9/0 (10/0) 27(80) 89 1017 / 30.04
 18:55 Overcast Thunderstorm SE 8/0 (9/0) 27(80) 89 1017 / 30.04
 18:23 Overcast Thunderstorm SSE 8/0 (9/0) 28(82) 87 1018 / 30.05
 17:55 Overcast Showers SSE 9/0 (10/0) 28(82) 87 1018 / 30.05
 16:55 Overcast  SSE 6/0 (7/0) 28(82) 85 1018 / 30.05
 16:03 Overcast  S 5/0 (6/0) 27(81) 85 1018 / 30.05
 15:55 Overcast Rain S 6/0 (7/0) 27(81) 85 1018 / 30.05
 15:45 Overcast Rain S 6/0 (7/0) 28(82) 83 1018 / 30.05
Observations from our AWOS sites are available here (password and username are both 'guest').